sensor_id;sensor_type;location;lat;lon;timestamp;P1;durP1;ratioP1;P2;durP2;ratioP2
8159;SDS011;27404;52.398;9.646;2023-03-03T00:02:20;33.73;;;16.07;;
8159;SDS011;27404;52.398;9.646;2023-03-03T00:04:45;34.57;;;14.80;;
8159;SDS011;27404;52.398;9.646;2023-03-03T00:07:11;32.87;;;13.67;;
8159;SDS011;27404;52.398;9.646;2023-03-03T00:09:39;34.03;;;14.37;;
8159;SDS011;27404;52.398;9.646;2023-03-03T00:12:17;33.30;;;13.27;;
8159;SDS011;27404;52.398;9.646;2023-03-03T00:14:47;32.03;;;14.13;;
8159;SDS011;27404;52.398;9.646;2023-03-03T00:17:26;36.03;;;13.53;;
8159;SDS011;27404;52.398;9.646;2023-03-03T00:19:54;32.40;;;13.23;;
8159;SDS011;27404;52.398;9.646;2023-03-03T00:22:30;36.90;;;14.27;;
8159;SDS011;27404;52.398;9.646;2023-03-03T00:27:55;31.37;;;13.27;;
8159;SDS011;27404;52.398;9.646;2023-03-03T00:30:26;35.40;;;13.93;;
8159;SDS011;27404;52.398;9.646;2023-03-03T00:32:52;34.03;;;13.20;;
8159;SDS011;27404;52.398;9.646;2023-03-03T00:35:26;30.53;;;13.03;;
8159;SDS011;27404;52.398;9.646;2023-03-03T00:38:13;29.10;;;13.50;;
8159;SDS011;27404;52.398;9.646;2023-03-03T00:40:44;27.37;;;11.57;;
8159;SDS011;27404;52.398;9.646;2023-03-03T00:43:20;27.13;;;12.80;;
8159;SDS011;27404;52.398;9.646;2023-03-03T00:51:12;28.33;;;12.13;;
8159;SDS011;27404;52.398;9.646;2023-03-03T00:53:42;28.80;;;12.17;;
8159;SDS011;27404;52.398;9.646;2023-03-03T00:56:07;29.93;;;12.90;;
8159;SDS011;27404;52.398;9.646;2023-03-03T00:58:32;24.83;;;11.07;;
8159;SDS011;27404;52.398;9.646;2023-03-03T01:00:58;28.77;;;13.07;;
8159;SDS011;27404;52.398;9.646;2023-03-03T01:03:24;28.50;;;13.20;;
8159;SDS011;27404;52.398;9.646;2023-03-03T01:05:51;31.60;;;12.70;;
8159;SDS011;27404;52.398;9.646;2023-03-03T01:08:17;26.83;;;12.47;;
8159;SDS011;27404;52.398;9.646;2023-03-03T01:11:19;28.23;;;13.57;;
8159;SDS011;27404;52.398;9.646;2023-03-03T01:13:44;26.40;;;12.30;;
8159;SDS011;27404;52.398;9.646;2023-03-03T01:16:13;24.17;;;11.40;;
8159;SDS011;27404;52.398;9.646;2023-03-03T01:18:38;26.57;;;12.53;;
8159;SDS011;27404;52.398;9.646;2023-03-03T01:21:05;25.80;;;11.37;;
8159;SDS011;27404;52.398;9.646;2023-03-03T01:23:32;25.90;;;11.63;;
8159;SDS011;27404;52.398;9.646;2023-03-03T01:25:58;29.33;;;12.23;;
8159;SDS011;27404;52.398;9.646;2023-03-03T01:28:23;28.07;;;11.50;;
8159;SDS011;27404;52.398;9.646;2023-03-03T01:30:49;28.63;;;11.30;;
8159;SDS011;27404;52.398;9.646;2023-03-03T01:33:15;29.50;;;12.87;;
8159;SDS011;27404;52.398;9.646;2023-03-03T01:35:44;27.57;;;11.80;;
8159;SDS011;27404;52.398;9.646;2023-03-03T01:38:10;23.87;;;11.73;;
8159;SDS011;27404;52.398;9.646;2023-03-03T01:40:36;27.60;;;11.63;;
8159;SDS011;27404;52.398;9.646;2023-03-03T01:43:02;26.17;;;11.63;;
8159;SDS011;27404;52.398;9.646;2023-03-03T01:45:29;27.13;;;11.33;;
8159;SDS011;27404;52.398;9.646;2023-03-03T01:48:16;33.50;;;12.30;;
8159;SDS011;27404;52.398;9.646;2023-03-03T01:53:42;26.10;;;11.17;;
8159;SDS011;27404;52.398;9.646;2023-03-03T01:56:10;24.03;;;10.53;;
8159;SDS011;27404;52.398;9.646;2023-03-03T01:58:37;28.27;;;11.60;;
8159;SDS011;27404;52.398;9.646;2023-03-03T02:01:10;25.17;;;10.77;;
8159;SDS011;27404;52.398;9.646;2023-03-03T02:03:39;28.73;;;10.73;;
8159;SDS011;27404;52.398;9.646;2023-03-03T02:06:07;28.20;;;11.03;;
8159;SDS011;27404;52.398;9.646;2023-03-03T02:08:38;27.50;;;11.13;;
8159;SDS011;27404;52.398;9.646;2023-03-03T02:11:25;24.13;;;10.43;;
8159;SDS011;27404;52.398;9.646;2023-03-03T02:13:53;25.27;;;10.60;;
8159;SDS011;27404;52.398;9.646;2023-03-03T02:16:19;27.23;;;11.70;;
8159;SDS011;27404;52.398;9.646;2023-03-03T02:18:44;27.43;;;11.83;;
8159;SDS011;27404;52.398;9.646;2023-03-03T02:21:17;25.30;;;10.83;;
8159;SDS011;27404;52.398;9.646;2023-03-03T02:26:39;27.63;;;11.50;;
8159;SDS011;27404;52.398;9.646;2023-03-03T02:29:05;28.07;;;10.77;;
8159;SDS011;27404;52.398;9.646;2023-03-03T02:31:32;26.90;;;11.23;;
8159;SDS011;27404;52.398;9.646;2023-03-03T02:33:58;26.10;;;10.40;;
8159;SDS011;27404;52.398;9.646;2023-03-03T02:36:25;27.03;;;10.67;;
8159;SDS011;27404;52.398;9.646;2023-03-03T02:39:19;23.60;;;10.33;;
8159;SDS011;27404;52.398;9.646;2023-03-03T02:42:00;23.10;;;10.37;;
8159;SDS011;27404;52.398;9.646;2023-03-03T02:44:46;28.27;;;11.20;;
8159;SDS011;27404;52.398;9.646;2023-03-03T02:47:12;27.60;;;10.70;;
8159;SDS011;27404;52.398;9.646;2023-03-03T02:49:37;27.63;;;11.67;;
8159;SDS011;27404;52.398;9.646;2023-03-03T02:52:05;23.40;;;10.27;;
8159;SDS011;27404;52.398;9.646;2023-03-03T02:54:34;25.13;;;10.00;;
8159;SDS011;27404;52.398;9.646;2023-03-03T02:57:00;23.50;;;10.67;;
8159;SDS011;27404;52.398;9.646;2023-03-03T02:59:26;22.20;;;9.97;;
8159;SDS011;27404;52.398;9.646;2023-03-03T03:01:51;23.07;;;10.13;;
8159;SDS011;27404;52.398;9.646;2023-03-03T03:04:18;26.90;;;10.90;;
8159;SDS011;27404;52.398;9.646;2023-03-03T03:06:48;29.97;;;12.57;;
8159;SDS011;27404;52.398;9.646;2023-03-03T03:09:14;28.87;;;11.70;;
8159;SDS011;27404;52.398;9.646;2023-03-03T03:11:41;30.30;;;12.03;;
8159;SDS011;27404;52.398;9.646;2023-03-03T03:14:07;30.77;;;12.13;;
8159;SDS011;27404;52.398;9.646;2023-03-03T03:16:34;28.13;;;11.77;;
8159;SDS011;27404;52.398;9.646;2023-03-03T03:19:00;35.37;;;13.60;;
8159;SDS011;27404;52.398;9.646;2023-03-03T03:21:26;27.70;;;12.47;;
8159;SDS011;27404;52.398;9.646;2023-03-03T03:23:51;32.77;;;12.70;;
8159;SDS011;27404;52.398;9.646;2023-03-03T03:26:17;27.80;;;11.80;;
8159;SDS011;27404;52.398;9.646;2023-03-03T03:28:45;24.03;;;10.27;;
8159;SDS011;27404;52.398;9.646;2023-03-03T03:31:11;25.87;;;10.87;;
8159;SDS011;27404;52.398;9.646;2023-03-03T03:33:37;24.03;;;10.03;;
8159;SDS011;27404;52.398;9.646;2023-03-03T03:36:03;24.87;;;10.53;;
8159;SDS011;27404;52.398;9.646;2023-03-03T03:38:30;25.47;;;11.10;;
8159;SDS011;27404;52.398;9.646;2023-03-03T03:40:57;27.60;;;9.60;;
8159;SDS011;27404;52.398;9.646;2023-03-03T03:43:23;21.60;;;9.30;;
8159;SDS011;27404;52.398;9.646;2023-03-03T03:45:49;26.87;;;10.63;;
8159;SDS011;27404;52.398;9.646;2023-03-03T03:48:15;27.13;;;11.20;;
8159;SDS011;27404;52.398;9.646;2023-03-03T03:50:41;27.67;;;10.93;;
8159;SDS011;27404;52.398;9.646;2023-03-03T03:53:07;28.40;;;10.63;;
8159;SDS011;27404;52.398;9.646;2023-03-03T03:55:32;28.03;;;11.57;;
8159;SDS011;27404;52.398;9.646;2023-03-03T03:57:58;25.07;;;11.30;;
8159;SDS011;27404;52.398;9.646;2023-03-03T04:00:24;27.40;;;11.10;;
8159;SDS011;27404;52.398;9.646;2023-03-03T04:02:50;28.77;;;11.93;;
8159;SDS011;27404;52.398;9.646;2023-03-03T04:05:15;32.10;;;11.50;;
8159;SDS011;27404;52.398;9.646;2023-03-03T04:07:41;27.77;;;10.87;;
8159;SDS011;27404;52.398;9.646;2023-03-03T04:10:06;25.77;;;11.50;;
8159;SDS011;27404;52.398;9.646;2023-03-03T04:12:32;26.03;;;11.77;;
8159;SDS011;27404;52.398;9.646;2023-03-03T04:15:11;25.80;;;11.23;;
8159;SDS011;27404;52.398;9.646;2023-03-03T04:17:38;25.03;;;10.20;;
8159;SDS011;27404;52.398;9.646;2023-03-03T04:20:05;26.40;;;10.90;;
8159;SDS011;27404;52.398;9.646;2023-03-03T04:22:31;25.80;;;10.83;;
8159;SDS011;27404;52.398;9.646;2023-03-03T04:25:01;28.47;;;11.53;;
8159;SDS011;27404;52.398;9.646;2023-03-03T04:27:33;26.07;;;11.67;;
8159;SDS011;27404;52.398;9.646;2023-03-03T04:30:00;31.17;;;12.30;;
8159;SDS011;27404;52.398;9.646;2023-03-03T04:32:26;28.97;;;12.33;;
8159;SDS011;27404;52.398;9.646;2023-03-03T04:34:52;31.00;;;12.33;;
8159;SDS011;27404;52.398;9.646;2023-03-03T04:37:18;36.63;;;13.70;;
8159;SDS011;27404;52.398;9.646;2023-03-03T04:39:44;28.83;;;12.40;;
8159;SDS011;27404;52.398;9.646;2023-03-03T04:42:10;30.73;;;11.83;;
8159;SDS011;27404;52.398;9.646;2023-03-03T04:44:35;31.67;;;12.83;;
8159;SDS011;27404;52.398;9.646;2023-03-03T04:47:01;32.30;;;12.93;;
8159;SDS011;27404;52.398;9.646;2023-03-03T04:49:26;31.03;;;12.40;;
8159;SDS011;27404;52.398;9.646;2023-03-03T04:51:52;30.53;;;12.77;;
8159;SDS011;27404;52.398;9.646;2023-03-03T04:54:17;33.93;;;13.37;;
8159;SDS011;27404;52.398;9.646;2023-03-03T04:56:42;28.30;;;12.70;;
8159;SDS011;27404;52.398;9.646;2023-03-03T04:59:08;36.90;;;13.47;;
8159;SDS011;27404;52.398;9.646;2023-03-03T05:01:33;34.03;;;14.47;;
8159;SDS011;27404;52.398;9.646;2023-03-03T05:03:59;36.30;;;14.33;;
8159;SDS011;27404;52.398;9.646;2023-03-03T05:06:24;29.63;;;13.43;;
8159;SDS011;27404;52.398;9.646;2023-03-03T05:08:50;35.30;;;14.93;;
8159;SDS011;27404;52.398;9.646;2023-03-03T05:11:15;33.50;;;13.77;;
8159;SDS011;27404;52.398;9.646;2023-03-03T05:13:41;34.30;;;13.23;;
8159;SDS011;27404;52.398;9.646;2023-03-03T05:16:06;31.60;;;13.23;;
8159;SDS011;27404;52.398;9.646;2023-03-03T05:18:33;27.93;;;12.67;;
8159;SDS011;27404;52.398;9.646;2023-03-03T05:20:58;27.83;;;12.40;;
8159;SDS011;27404;52.398;9.646;2023-03-03T05:23:23;26.77;;;12.03;;
8159;SDS011;27404;52.398;9.646;2023-03-03T05:25:49;27.90;;;12.07;;
8159;SDS011;27404;52.398;9.646;2023-03-03T05:28:15;30.47;;;12.53;;
8159;SDS011;27404;52.398;9.646;2023-03-03T05:30:41;29.00;;;12.63;;
8159;SDS011;27404;52.398;9.646;2023-03-03T05:33:07;29.90;;;12.83;;
8159;SDS011;27404;52.398;9.646;2023-03-03T05:35:32;30.67;;;13.00;;
8159;SDS011;27404;52.398;9.646;2023-03-03T05:37:58;32.80;;;14.07;;
8159;SDS011;27404;52.398;9.646;2023-03-03T05:40:24;29.03;;;12.63;;
8159;SDS011;27404;52.398;9.646;2023-03-03T05:42:51;30.40;;;13.90;;
8159;SDS011;27404;52.398;9.646;2023-03-03T05:45:17;33.10;;;13.30;;
8159;SDS011;27404;52.398;9.646;2023-03-03T05:47:48;31.77;;;13.57;;
8159;SDS011;27404;52.398;9.646;2023-03-03T05:50:14;26.30;;;12.23;;
8159;SDS011;27404;52.398;9.646;2023-03-03T05:52:40;31.73;;;13.50;;
8159;SDS011;27404;52.398;9.646;2023-03-03T05:55:05;29.57;;;13.03;;
8159;SDS011;27404;52.398;9.646;2023-03-03T05:57:31;37.47;;;15.03;;
8159;SDS011;27404;52.398;9.646;2023-03-03T05:59:57;36.67;;;15.50;;
8159;SDS011;27404;52.398;9.646;2023-03-03T06:02:22;38.73;;;16.17;;
8159;SDS011;27404;52.398;9.646;2023-03-03T06:04:48;38.90;;;16.10;;
8159;SDS011;27404;52.398;9.646;2023-03-03T06:07:13;34.03;;;16.17;;
8159;SDS011;27404;52.398;9.646;2023-03-03T06:09:38;31.43;;;13.67;;
8159;SDS011;27404;52.398;9.646;2023-03-03T06:12:04;32.00;;;14.40;;
8159;SDS011;27404;52.398;9.646;2023-03-03T06:14:30;32.37;;;14.03;;
8159;SDS011;27404;52.398;9.646;2023-03-03T06:16:56;32.27;;;14.67;;
8159;SDS011;27404;52.398;9.646;2023-03-03T06:19:22;36.23;;;14.37;;
8159;SDS011;27404;52.398;9.646;2023-03-03T06:21:47;34.77;;;14.90;;
8159;SDS011;27404;52.398;9.646;2023-03-03T06:24:13;34.73;;;14.43;;
8159;SDS011;27404;52.398;9.646;2023-03-03T06:26:38;40.33;;;15.73;;
8159;SDS011;27404;52.398;9.646;2023-03-03T06:29:04;39.37;;;15.77;;
8159;SDS011;27404;52.398;9.646;2023-03-03T06:31:29;39.87;;;16.17;;
8159;SDS011;27404;52.398;9.646;2023-03-03T06:33:55;42.50;;;17.47;;
8159;SDS011;27404;52.398;9.646;2023-03-03T06:36:20;36.17;;;15.13;;
8159;SDS011;27404;52.398;9.646;2023-03-03T06:38:46;37.37;;;15.13;;
8159;SDS011;27404;52.398;9.646;2023-03-03T06:41:11;32.27;;;14.07;;
8159;SDS011;27404;52.398;9.646;2023-03-03T06:43:37;31.07;;;13.37;;
8159;SDS011;27404;52.398;9.646;2023-03-03T06:46:03;27.70;;;12.50;;
8159;SDS011;27404;52.398;9.646;2023-03-03T06:48:29;28.53;;;12.37;;
8159;SDS011;27404;52.398;9.646;2023-03-03T06:50:56;29.33;;;13.23;;
8159;SDS011;27404;52.398;9.646;2023-03-03T06:53:24;26.93;;;12.03;;
8159;SDS011;27404;52.398;9.646;2023-03-03T06:55:50;28.17;;;11.97;;
8159;SDS011;27404;52.398;9.646;2023-03-03T06:58:16;28.60;;;11.53;;
8159;SDS011;27404;52.398;9.646;2023-03-03T07:00:45;25.23;;;11.30;;
8159;SDS011;27404;52.398;9.646;2023-03-03T07:03:23;27.13;;;12.37;;
8159;SDS011;27404;52.398;9.646;2023-03-03T07:05:51;28.43;;;11.47;;
8159;SDS011;27404;52.398;9.646;2023-03-03T07:08:18;26.43;;;12.13;;
8159;SDS011;27404;52.398;9.646;2023-03-03T07:10:46;26.97;;;11.83;;
8159;SDS011;27404;52.398;9.646;2023-03-03T07:13:16;24.80;;;11.10;;
8159;SDS011;27404;52.398;9.646;2023-03-03T07:15:48;23.27;;;11.07;;
8159;SDS011;27404;52.398;9.646;2023-03-03T07:18:22;22.80;;;10.67;;
8159;SDS011;27404;52.398;9.646;2023-03-03T07:20:56;23.93;;;10.47;;
8159;SDS011;27404;52.398;9.646;2023-03-03T07:23:24;23.80;;;11.00;;
8159;SDS011;27404;52.398;9.646;2023-03-03T07:25:53;24.30;;;11.87;;
8159;SDS011;27404;52.398;9.646;2023-03-03T07:30:52;22.37;;;10.33;;
8159;SDS011;27404;52.398;9.646;2023-03-03T07:35:53;27.57;;;11.77;;
8159;SDS011;27404;52.398;9.646;2023-03-03T07:41:07;27.67;;;12.40;;
8159;SDS011;27404;52.398;9.646;2023-03-03T07:43:39;30.20;;;13.97;;
8159;SDS011;27404;52.398;9.646;2023-03-03T07:48:54;29.53;;;13.17;;
8159;SDS011;27404;52.398;9.646;2023-03-03T07:51:25;31.97;;;14.20;;
8159;SDS011;27404;52.398;9.646;2023-03-03T07:54:36;26.37;;;12.30;;
8159;SDS011;27404;52.398;9.646;2023-03-03T07:56:54;27.13;;;12.97;;
8159;SDS011;27404;52.398;9.646;2023-03-03T07:59:26;26.20;;;12.07;;
8159;SDS011;27404;52.398;9.646;2023-03-03T08:01:55;24.90;;;12.07;;
8159;SDS011;27404;52.398;9.646;2023-03-03T08:07:08;26.63;;;11.57;;
8159;SDS011;27404;52.398;9.646;2023-03-03T08:14:49;24.30;;;12.57;;
8159;SDS011;27404;52.398;9.646;2023-03-03T08:19:44;25.27;;;11.83;;
8159;SDS011;27404;52.398;9.646;2023-03-03T08:22:14;26.63;;;12.30;;
8159;SDS011;27404;52.398;9.646;2023-03-03T08:24:42;27.67;;;12.83;;
8159;SDS011;27404;52.398;9.646;2023-03-03T08:27:07;27.33;;;12.80;;
8159;SDS011;27404;52.398;9.646;2023-03-03T08:29:33;26.23;;;11.57;;
8159;SDS011;27404;52.398;9.646;2023-03-03T08:31:58;26.23;;;11.63;;
8159;SDS011;27404;52.398;9.646;2023-03-03T08:34:23;25.60;;;12.17;;
8159;SDS011;27404;52.398;9.646;2023-03-03T08:36:49;25.70;;;12.23;;
8159;SDS011;27404;52.398;9.646;2023-03-03T08:39:14;27.53;;;12.33;;
8159;SDS011;27404;52.398;9.646;2023-03-03T08:41:40;25.77;;;12.53;;
8159;SDS011;27404;52.398;9.646;2023-03-03T08:44:08;27.70;;;13.17;;
8159;SDS011;27404;52.398;9.646;2023-03-03T08:46:34;31.50;;;14.00;;
8159;SDS011;27404;52.398;9.646;2023-03-03T08:49:00;34.87;;;14.53;;
8159;SDS011;27404;52.398;9.646;2023-03-03T08:51:25;31.37;;;13.87;;
8159;SDS011;27404;52.398;9.646;2023-03-03T08:53:51;30.30;;;12.87;;
8159;SDS011;27404;52.398;9.646;2023-03-03T08:56:16;25.93;;;13.00;;
8159;SDS011;27404;52.398;9.646;2023-03-03T08:58:42;27.93;;;12.97;;
8159;SDS011;27404;52.398;9.646;2023-03-03T09:01:12;29.70;;;13.93;;
8159;SDS011;27404;52.398;9.646;2023-03-03T09:03:42;33.13;;;15.73;;
8159;SDS011;27404;52.398;9.646;2023-03-03T09:06:09;37.97;;;17.17;;
8159;SDS011;27404;52.398;9.646;2023-03-03T09:08:35;37.20;;;16.10;;
8159;SDS011;27404;52.398;9.646;2023-03-03T09:11:01;29.87;;;14.13;;
8159;SDS011;27404;52.398;9.646;2023-03-03T09:13:28;24.90;;;12.07;;
8159;SDS011;27404;52.398;9.646;2023-03-03T09:15:54;30.50;;;14.37;;
8159;SDS011;27404;52.398;9.646;2023-03-03T09:18:29;29.13;;;14.27;;
8159;SDS011;27404;52.398;9.646;2023-03-03T09:20:59;30.90;;;13.90;;
8159;SDS011;27404;52.398;9.646;2023-03-03T09:31:37;28.33;;;13.47;;
8159;SDS011;27404;52.398;9.646;2023-03-03T09:34:18;27.43;;;13.07;;
8159;SDS011;27404;52.398;9.646;2023-03-03T09:36:46;27.13;;;12.23;;
8159;SDS011;27404;52.398;9.646;2023-03-03T09:39:17;32.33;;;15.13;;
8159;SDS011;27404;52.398;9.646;2023-03-03T09:44:55;26.63;;;12.13;;
8159;SDS011;27404;52.398;9.646;2023-03-03T10:06:32;27.47;;;12.30;;
8159;SDS011;27404;52.398;9.646;2023-03-03T10:12:04;27.73;;;11.57;;
8159;SDS011;27404;52.398;9.646;2023-03-03T10:22:32;28.90;;;13.10;;
8159;SDS011;27404;52.398;9.646;2023-03-03T10:25:34;30.73;;;12.47;;
8159;SDS011;27404;52.398;9.646;2023-03-03T10:44:44;31.67;;;13.50;;
8159;SDS011;27404;52.398;9.646;2023-03-03T10:58:52;25.60;;;12.20;;
8159;SDS011;27404;52.398;9.646;2023-03-03T11:01:39;27.83;;;12.40;;
8159;SDS011;27404;52.398;9.646;2023-03-03T11:12:57;29.57;;;12.40;;
8159;SDS011;27404;52.398;9.646;2023-03-03T11:21:26;39.83;;;16.50;;
8159;SDS011;27404;52.398;9.646;2023-03-03T11:24:05;35.10;;;15.70;;
8159;SDS011;27404;52.398;9.646;2023-03-03T11:27:16;37.70;;;14.97;;
8159;SDS011;27404;52.398;9.646;2023-03-03T11:30:02;37.30;;;16.63;;
8159;SDS011;27404;52.398;9.646;2023-03-03T11:35:16;37.40;;;16.10;;
8159;SDS011;27404;52.398;9.646;2023-03-03T11:37:55;40.40;;;15.63;;
8159;SDS011;27404;52.398;9.646;2023-03-03T11:40:31;35.20;;;15.10;;
8159;SDS011;27404;52.398;9.646;2023-03-03T11:43:21;37.93;;;16.10;;
8159;SDS011;27404;52.398;9.646;2023-03-03T11:45:58;36.93;;;15.53;;
8159;SDS011;27404;52.398;9.646;2023-03-03T11:48:37;35.13;;;14.53;;
8159;SDS011;27404;52.398;9.646;2023-03-03T11:51:21;29.63;;;13.03;;
8159;SDS011;27404;52.398;9.646;2023-03-03T11:56:46;34.67;;;15.13;;
8159;SDS011;27404;52.398;9.646;2023-03-03T11:59:16;36.40;;;15.70;;
8159;SDS011;27404;52.398;9.646;2023-03-03T12:04:44;37.33;;;17.03;;
8159;SDS011;27404;52.398;9.646;2023-03-03T12:16:03;39.57;;;15.27;;
8159;SDS011;27404;52.398;9.646;2023-03-03T12:21:50;33.60;;;15.10;;
8159;SDS011;27404;52.398;9.646;2023-03-03T12:32:54;35.27;;;15.73;;
8159;SDS011;27404;52.398;9.646;2023-03-03T12:35:34;39.97;;;16.73;;
8159;SDS011;27404;52.398;9.646;2023-03-03T12:41:08;39.50;;;16.53;;
8159;SDS011;27404;52.398;9.646;2023-03-03T12:48:51;38.43;;;16.23;;
8159;SDS011;27404;52.398;9.646;2023-03-03T12:57:18;36.47;;;16.47;;
8159;SDS011;27404;52.398;9.646;2023-03-03T13:02:46;37.07;;;16.47;;
8159;SDS011;27404;52.398;9.646;2023-03-03T13:18:38;33.77;;;15.27;;
8159;SDS011;27404;52.398;9.646;2023-03-03T13:23:54;40.73;;;16.07;;
8159;SDS011;27404;52.398;9.646;2023-03-03T13:29:29;38.60;;;15.40;;
8159;SDS011;27404;52.398;9.646;2023-03-03T13:32:14;42.37;;;16.40;;
8159;SDS011;27404;52.398;9.646;2023-03-03T13:35:30;36.00;;;15.60;;
8159;SDS011;27404;52.398;9.646;2023-03-03T13:42:42;35.27;;;16.43;;
8159;SDS011;27404;52.398;9.646;2023-03-03T13:45:17;32.70;;;15.33;;
8159;SDS011;27404;52.398;9.646;2023-03-03T13:48:43;32.30;;;14.97;;
8159;SDS011;27404;52.398;9.646;2023-03-03T13:53:44;35.27;;;14.93;;
8159;SDS011;27404;52.398;9.646;2023-03-03T14:01:54;30.17;;;14.00;;
8159;SDS011;27404;52.398;9.646;2023-03-03T14:07:41;33.70;;;14.73;;
8159;SDS011;27404;52.398;9.646;2023-03-03T14:10:00;30.63;;;14.43;;
8159;SDS011;27404;52.398;9.646;2023-03-03T14:12:51;31.90;;;13.60;;
8159;SDS011;27404;52.398;9.646;2023-03-03T14:15:27;33.10;;;14.83;;
8159;SDS011;27404;52.398;9.646;2023-03-03T14:20:54;29.13;;;13.40;;
8159;SDS011;27404;52.398;9.646;2023-03-03T14:23:40;30.83;;;14.47;;
8159;SDS011;27404;52.398;9.646;2023-03-03T14:26:10;30.30;;;14.20;;
8159;SDS011;27404;52.398;9.646;2023-03-03T14:28:40;30.67;;;14.33;;
8159;SDS011;27404;52.398;9.646;2023-03-03T14:31:19;28.63;;;13.37;;
8159;SDS011;27404;52.398;9.646;2023-03-03T14:36:32;27.13;;;12.53;;
8159;SDS011;27404;52.398;9.646;2023-03-03T14:39:04;29.97;;;12.83;;
8159;SDS011;27404;52.398;9.646;2023-03-03T14:41:53;26.27;;;12.77;;
8159;SDS011;27404;52.398;9.646;2023-03-03T14:44:30;29.33;;;13.23;;
8159;SDS011;27404;52.398;9.646;2023-03-03T14:47:11;28.40;;;12.93;;
8159;SDS011;27404;52.398;9.646;2023-03-03T14:49:45;24.40;;;12.03;;
8159;SDS011;27404;52.398;9.646;2023-03-03T14:54:37;28.07;;;13.00;;
8159;SDS011;27404;52.398;9.646;2023-03-03T14:57:14;25.97;;;12.97;;
8159;SDS011;27404;52.398;9.646;2023-03-03T15:02:40;31.90;;;14.13;;
8159;SDS011;27404;52.398;9.646;2023-03-03T15:05:24;29.33;;;12.90;;
8159;SDS011;27404;52.398;9.646;2023-03-03T15:07:52;31.63;;;13.73;;
8159;SDS011;27404;52.398;9.646;2023-03-03T15:10:30;29.13;;;13.93;;
8159;SDS011;27404;52.398;9.646;2023-03-03T15:16:04;31.57;;;15.17;;
8159;SDS011;27404;52.398;9.646;2023-03-03T15:18:35;36.17;;;15.33;;
8159;SDS011;27404;52.398;9.646;2023-03-03T15:21:25;32.97;;;15.60;;
8159;SDS011;27404;52.398;9.646;2023-03-03T15:26:29;37.37;;;16.30;;
8159;SDS011;27404;52.398;9.646;2023-03-03T15:32:04;44.37;;;18.30;;
8159;SDS011;27404;52.398;9.646;2023-03-03T15:40:24;53.63;;;21.80;;
8159;SDS011;27404;52.398;9.646;2023-03-03T15:43:05;57.93;;;22.67;;
8159;SDS011;27404;52.398;9.646;2023-03-03T15:48:59;59.93;;;24.57;;
8159;SDS011;27404;52.398;9.646;2023-03-03T15:54:28;64.90;;;26.57;;
8159;SDS011;27404;52.398;9.646;2023-03-03T15:57:03;64.93;;;27.40;;
8159;SDS011;27404;52.398;9.646;2023-03-03T16:02:24;73.30;;;28.93;;
8159;SDS011;27404;52.398;9.646;2023-03-03T16:05:12;66.87;;;26.93;;
8159;SDS011;27404;52.398;9.646;2023-03-03T16:10:50;61.70;;;26.13;;
8159;SDS011;27404;52.398;9.646;2023-03-03T16:16:46;65.40;;;25.70;;
8159;SDS011;27404;52.398;9.646;2023-03-03T16:19:41;65.87;;;26.03;;
8159;SDS011;27404;52.398;9.646;2023-03-03T16:25:03;63.40;;;25.63;;
8159;SDS011;27404;52.398;9.646;2023-03-03T16:33:34;60.67;;;24.17;;
8159;SDS011;27404;52.398;9.646;2023-03-03T16:39:01;58.37;;;25.20;;
8159;SDS011;27404;52.398;9.646;2023-03-03T16:41:33;58.43;;;24.50;;
8159;SDS011;27404;52.398;9.646;2023-03-03T16:44:24;62.03;;;24.37;;
8159;SDS011;27404;52.398;9.646;2023-03-03T16:50:08;52.63;;;21.23;;
8159;SDS011;27404;52.398;9.646;2023-03-03T16:58:40;43.17;;;18.73;;
8159;SDS011;27404;52.398;9.646;2023-03-03T17:04:06;40.57;;;18.40;;
8159;SDS011;27404;52.398;9.646;2023-03-03T17:06:40;41.27;;;18.47;;
8159;SDS011;27404;52.398;9.646;2023-03-03T17:11:50;39.57;;;16.90;;
8159;SDS011;27404;52.398;9.646;2023-03-03T17:17:37;36.30;;;15.17;;
8159;SDS011;27404;52.398;9.646;2023-03-03T17:23:13;38.63;;;14.90;;
8159;SDS011;27404;52.398;9.646;2023-03-03T17:25:43;35.37;;;15.27;;
8159;SDS011;27404;52.398;9.646;2023-03-03T17:31:05;34.43;;;15.40;;
8159;SDS011;27404;52.398;9.646;2023-03-03T17:33:35;33.43;;;15.70;;
8159;SDS011;27404;52.398;9.646;2023-03-03T17:41:20;37.13;;;14.80;;
8159;SDS011;27404;52.398;9.646;2023-03-03T17:46:51;36.07;;;15.87;;
8159;SDS011;27404;52.398;9.646;2023-03-03T17:49:23;36.50;;;15.53;;
8159;SDS011;27404;52.398;9.646;2023-03-03T17:54:43;32.03;;;14.87;;
8159;SDS011;27404;52.398;9.646;2023-03-03T17:57:20;33.50;;;14.90;;
8159;SDS011;27404;52.398;9.646;2023-03-03T18:16:07;34.80;;;15.33;;
8159;SDS011;27404;52.398;9.646;2023-03-03T18:21:57;33.33;;;14.77;;
8159;SDS011;27404;52.398;9.646;2023-03-03T18:24:36;27.90;;;14.30;;
8159;SDS011;27404;52.398;9.646;2023-03-03T18:32:44;38.23;;;16.27;;
8159;SDS011;27404;52.398;9.646;2023-03-03T18:35:24;34.67;;;15.73;;
8159;SDS011;27404;52.398;9.646;2023-03-03T18:37:50;31.00;;;14.93;;
8159;SDS011;27404;52.398;9.646;2023-03-03T18:40:34;39.43;;;16.03;;
8159;SDS011;27404;52.398;9.646;2023-03-03T18:54:37;30.17;;;13.63;;
8159;SDS011;27404;52.398;9.646;2023-03-03T18:57:16;28.07;;;12.67;;
8159;SDS011;27404;52.398;9.646;2023-03-03T18:59:56;37.70;;;13.87;;
8159;SDS011;27404;52.398;9.646;2023-03-03T19:02:35;28.00;;;13.10;;
8159;SDS011;27404;52.398;9.646;2023-03-03T19:05:19;28.43;;;12.67;;
8159;SDS011;27404;52.398;9.646;2023-03-03T19:07:48;29.87;;;13.67;;
8159;SDS011;27404;52.398;9.646;2023-03-03T19:12:52;29.47;;;12.97;;
8159;SDS011;27404;52.398;9.646;2023-03-03T19:20:39;29.17;;;12.50;;
8159;SDS011;27404;52.398;9.646;2023-03-03T19:25:42;27.87;;;12.93;;
8159;SDS011;27404;52.398;9.646;2023-03-03T19:31:08;30.20;;;13.67;;
8159;SDS011;27404;52.398;9.646;2023-03-03T19:39:35;27.20;;;11.83;;
8159;SDS011;27404;52.398;9.646;2023-03-03T19:45:17;27.60;;;13.10;;
8159;SDS011;27404;52.398;9.646;2023-03-03T19:51:25;30.07;;;13.60;;
8159;SDS011;27404;52.398;9.646;2023-03-03T20:01:46;23.83;;;11.60;;
8159;SDS011;27404;52.398;9.646;2023-03-03T20:12:51;24.87;;;11.23;;
8159;SDS011;27404;52.398;9.646;2023-03-03T20:15:31;27.53;;;12.37;;
8159;SDS011;27404;52.398;9.646;2023-03-03T20:21:13;25.87;;;11.70;;
8159;SDS011;27404;52.398;9.646;2023-03-03T20:26:59;25.13;;;11.67;;
8159;SDS011;27404;52.398;9.646;2023-03-03T20:47:37;22.10;;;10.47;;
8159;SDS011;27404;52.398;9.646;2023-03-03T20:50:23;21.97;;;10.17;;
8159;SDS011;27404;52.398;9.646;2023-03-03T20:53:09;18.10;;;9.33;;
8159;SDS011;27404;52.398;9.646;2023-03-03T20:58:53;19.37;;;9.03;;
8159;SDS011;27404;52.398;9.646;2023-03-03T21:02:01;18.67;;;8.57;;
8159;SDS011;27404;52.398;9.646;2023-03-03T21:04:37;14.23;;;7.33;;
8159;SDS011;27404;52.398;9.646;2023-03-03T21:07:03;18.53;;;7.80;;
8159;SDS011;27404;52.398;9.646;2023-03-03T21:09:30;20.67;;;8.17;;
8159;SDS011;27404;52.398;9.646;2023-03-03T21:12:01;18.47;;;7.33;;
8159;SDS011;27404;52.398;9.646;2023-03-03T21:14:34;23.20;;;8.57;;
8159;SDS011;27404;52.398;9.646;2023-03-03T21:17:01;15.13;;;7.33;;
8159;SDS011;27404;52.398;9.646;2023-03-03T21:19:48;18.47;;;6.90;;
8159;SDS011;27404;52.398;9.646;2023-03-03T21:22:14;16.67;;;6.57;;
8159;SDS011;27404;52.398;9.646;2023-03-03T21:25:12;15.33;;;6.73;;
8159;SDS011;27404;52.398;9.646;2023-03-03T21:27:33;12.90;;;6.10;;
8159;SDS011;27404;52.398;9.646;2023-03-03T21:32:45;13.00;;;5.57;;
8159;SDS011;27404;52.398;9.646;2023-03-03T21:35:17;15.23;;;6.00;;
8159;SDS011;27404;52.398;9.646;2023-03-03T21:37:49;13.27;;;5.00;;